createdAt,value
2018-06-12T00:01:26.086Z,18.40
2018-06-12T00:03:57.247Z,18.30
2018-06-12T00:06:27.562Z,18.30
2018-06-12T00:08:58.690Z,18.30
2018-06-12T00:11:29.080Z,18.30
2018-06-12T00:14:01.497Z,18.20
2018-06-12T00:16:31.869Z,18.30
2018-06-12T00:19:02.194Z,18.30
2018-06-12T00:21:32.749Z,18.40
2018-06-12T00:24:03.120Z,18.40
2018-06-12T00:26:33.523Z,18.40
2018-06-12T00:29:03.881Z,18.40
2018-06-12T00:31:34.253Z,18.40
2018-06-12T00:34:05.848Z,18.20
2018-06-12T00:36:38.970Z,18.10
2018-06-12T00:39:09.341Z,18.10
2018-06-12T00:41:41.476Z,18.10
2018-06-12T00:44:10.040Z,18.10
2018-06-12T00:46:40.408Z,18.00
2018-06-12T00:49:10.793Z,18.00
2018-06-12T00:51:43.640Z,17.90
2018-06-12T00:54:14.008Z,17.90
2018-06-12T00:59:49.788Z,17.80
2018-06-12T01:02:22.225Z,17.70
2018-06-12T01:04:53.353Z,17.70
2018-06-12T01:07:23.723Z,17.70
2018-06-12T01:09:54.114Z,17.50
2018-06-12T01:12:24.470Z,17.60
2018-06-12T01:14:54.835Z,17.70
2018-06-12T01:17:25.230Z,17.60
2018-06-12T01:19:55.583Z,17.60
2018-06-12T01:22:47.387Z,17.60
2018-06-12T01:25:17.762Z,17.50
2018-06-12T01:27:48.129Z,17.40
2018-06-12T01:30:18.523Z,17.40
2018-06-12T01:32:48.917Z,17.40
2018-06-12T01:35:22.457Z,17.40
2018-06-12T01:37:53.612Z,17.40
2018-06-12T01:40:24.755Z,17.30
2018-06-12T01:42:55.897Z,17.30
2018-06-12T01:45:27.029Z,17.30
2018-06-12T01:47:57.391Z,17.30
2018-06-12T01:50:27.947Z,17.20
2018-06-12T01:53:00.391Z,17.10
2018-06-12T01:55:30.756Z,17.20
2018-06-12T01:58:01.128Z,17.20
2018-06-12T02:00:31.512Z,17.10
2018-06-12T02:03:01.885Z,17.00
2018-06-12T02:05:32.255Z,17.10
2018-06-12T02:08:04.625Z,17.00
2018-06-12T02:10:34.991Z,17.00
2018-06-12T02:13:06.131Z,17.00
2018-06-12T02:15:36.512Z,16.90
2018-06-12T02:18:11.986Z,17.00
2018-06-12T02:20:42.320Z,17.00
2018-06-12T02:23:12.691Z,16.90
2018-06-12T02:25:43.052Z,17.00
2018-06-12T02:28:15.135Z,17.00
2018-06-12T02:30:45.513Z,17.00
2018-06-12T02:33:15.901Z,17.00
2018-06-12T02:35:47.056Z,17.00
2018-06-12T02:38:17.430Z,17.00
2018-06-12T02:40:47.796Z,17.00
2018-06-12T02:43:18.128Z,17.00
2018-06-12T02:45:49.286Z,16.90
2018-06-12T02:48:20.364Z,16.90
2018-06-12T02:50:50.691Z,16.80
2018-06-12T02:53:28.216Z,16.90
2018-06-12T02:55:59.243Z,17.00
2018-06-12T02:58:29.624Z,17.00
2018-06-12T03:00:59.988Z,17.00
2018-06-12T03:03:32.608Z,17.00
2018-06-12T03:06:02.977Z,17.00
2018-06-12T03:08:33.344Z,17.00
2018-06-12T03:11:03.739Z,17.00
2018-06-12T03:13:34.106Z,17.00
2018-06-12T03:16:04.468Z,17.00
2018-06-12T03:18:34.866Z,17.00
2018-06-12T03:21:06.008Z,17.00
2018-06-12T03:23:37.141Z,17.00
2018-06-12T03:26:08.171Z,17.00
2018-06-12T03:28:38.528Z,17.00
2018-06-12T03:31:08.902Z,17.10
2018-06-12T03:33:39.280Z,17.20
2018-06-12T03:36:10.419Z,17.20
2018-06-12T03:38:40.776Z,17.20
2018-06-12T03:41:11.154Z,17.10
2018-06-12T03:43:41.466Z,17.10
2018-06-12T03:46:11.834Z,17.20
2018-06-12T03:48:43.245Z,17.20
2018-06-12T03:51:13.611Z,17.10
2018-06-12T03:53:43.980Z,17.10
2018-06-12T03:56:16.409Z,17.10
2018-06-12T03:58:46.770Z,17.10
2018-06-12T04:01:35.494Z,17.20
2018-06-12T04:11:56.839Z,17.10
2018-06-12T04:14:27.969Z,17.10
2018-06-12T04:16:59.363Z,17.10
2018-06-12T04:19:29.695Z,17.10
2018-06-12T04:22:00.077Z,17.10
2018-06-12T04:24:30.445Z,17.10
2018-06-12T04:27:00.786Z,17.30
2018-06-12T04:29:31.868Z,17.20
2018-06-12T04:32:04.284Z,17.40
2018-06-12T04:34:34.671Z,17.40
2018-06-12T04:37:05.041Z,17.40
2018-06-12T04:39:35.352Z,17.20
2018-06-12T04:42:05.738Z,17.30
2018-06-12T04:44:36.099Z,17.20
2018-06-12T04:47:07.231Z,17.30
2018-06-12T04:49:38.374Z,17.30
2018-06-12T04:52:09.502Z,17.20
2018-06-12T04:54:39.898Z,17.10
2018-06-12T04:57:10.890Z,17.10
2018-06-12T04:59:42.022Z,17.00
2018-06-12T05:02:12.399Z,17.00
2018-06-12T05:04:42.804Z,17.00
2018-06-12T05:07:13.162Z,17.00
2018-06-12T05:10:02.920Z,17.10
2018-06-12T05:12:34.016Z,17.10
2018-06-12T05:15:04.391Z,17.00
2018-06-12T05:17:34.778Z,17.10
2018-06-12T05:20:05.811Z,17.20
2018-06-12T05:25:24.645Z,17.20
2018-06-12T05:27:54.953Z,17.20
2018-06-12T05:30:25.513Z,17.20
2018-06-12T05:32:57.938Z,17.30
2018-06-12T05:35:29.075Z,17.10
2018-06-12T05:37:59.433Z,17.10
2018-06-12T05:40:29.831Z,17.00
2018-06-12T05:43:00.193Z,17.10
2018-06-12T05:45:30.556Z,17.30
2018-06-12T05:48:00.954Z,17.30
2018-06-12T05:50:33.369Z,17.20
2018-06-12T05:53:03.677Z,17.10
2018-06-12T05:55:34.069Z,17.00
2018-06-12T05:58:04.443Z,17.10
2018-06-12T06:00:34.835Z,17.00
2018-06-12T06:03:05.224Z,17.10
2018-06-12T06:05:36.354Z,17.00
2018-06-12T06:08:07.495Z,17.00
2018-06-12T06:10:37.918Z,17.00
2018-06-12T06:13:08.268Z,17.10
2018-06-12T06:15:39.396Z,17.10
2018-06-12T06:18:10.498Z,17.10
2018-06-12T06:20:44.959Z,17.10
2018-06-12T06:23:16.248Z,17.60
2018-06-12T06:25:46.617Z,17.60
2018-06-12T06:28:16.979Z,17.30
2018-06-12T06:30:47.357Z,17.30
2018-06-12T06:33:17.701Z,17.30
2018-06-12T06:35:48.076Z,17.20
2018-06-12T06:38:18.454Z,17.30
2018-06-12T06:40:48.817Z,17.10
2018-06-12T06:43:19.186Z,17.00
2018-06-12T06:45:49.573Z,17.00
2018-06-12T06:48:19.944Z,17.00
2018-06-12T06:50:50.318Z,16.90
2018-06-12T06:53:20.716Z,16.90
2018-06-12T06:55:51.077Z,17.00
2018-06-12T06:58:21.441Z,16.80
2018-06-12T07:00:51.820Z,16.90
2018-06-12T07:03:22.949Z,16.80
2018-06-12T07:05:54.038Z,16.80
2018-06-12T07:08:26.469Z,16.80
2018-06-12T07:10:57.605Z,16.70
2018-06-12T07:13:28.741Z,16.80
2018-06-12T07:15:59.131Z,16.80
2018-06-12T07:18:50.909Z,16.80
2018-06-12T07:21:23.285Z,16.90
2018-06-12T07:23:54.410Z,17.00
2018-06-12T07:26:24.773Z,16.90
2018-06-12T07:28:55.174Z,16.90
2018-06-12T07:31:26.312Z,16.80
2018-06-12T07:33:56.683Z,16.80
2018-06-12T07:36:28.097Z,16.70
2018-06-12T07:38:58.466Z,16.80
2018-06-12T07:41:32.925Z,16.90
2018-06-12T07:44:03.320Z,16.80
2018-06-12T07:46:33.693Z,16.70
2018-06-12T07:49:04.069Z,16.70
2018-06-12T07:51:40.609Z,16.90
2018-06-12T07:54:11.170Z,16.80
2018-06-12T07:56:41.532Z,16.90
2018-06-12T07:59:11.926Z,16.80
2018-06-12T08:01:44.330Z,16.70
2018-06-12T08:04:14.637Z,16.70
2018-06-12T08:06:46.045Z,16.70
2018-06-12T08:09:16.407Z,16.80
2018-06-12T08:11:47.477Z,16.70
2018-06-12T08:14:17.874Z,16.70
2018-06-12T08:16:48.180Z,16.70
2018-06-12T08:19:19.269Z,16.60
2018-06-12T08:21:49.662Z,16.60
2018-06-12T08:24:26.161Z,16.50
2018-06-12T08:26:56.828Z,16.60
2018-06-12T08:29:27.953Z,16.60
2018-06-12T08:31:58.316Z,16.60
2018-06-12T08:34:28.711Z,16.90
2018-06-12T08:36:59.065Z,17.00
2018-06-12T08:39:29.423Z,16.90
2018-06-12T08:42:06.968Z,16.70
2018-06-12T08:44:37.335Z,16.90
2018-06-12T08:47:09.745Z,16.90
2018-06-12T08:49:40.139Z,16.70
2018-06-12T08:52:30.636Z,17.00
2018-06-12T08:55:06.131Z,17.00
2018-06-12T08:57:37.277Z,16.50
2018-06-12T09:00:07.588Z,16.50
2018-06-12T09:02:37.976Z,16.40
2018-06-12T09:05:09.059Z,16.50
2018-06-12T09:07:39.437Z,16.50
2018-06-12T09:10:10.860Z,16.40
2018-06-12T09:12:41.223Z,16.00
2018-06-12T09:15:30.979Z,16.10
2018-06-12T09:18:01.352Z,16.10
2018-06-12T09:20:31.731Z,15.90
2018-06-12T09:23:02.138Z,15.90
2018-06-12T09:25:33.280Z,15.80
2018-06-12T09:28:03.639Z,15.80
2018-06-12T09:30:34.029Z,15.80
2018-06-12T09:35:51.614Z,15.80
2018-06-12T09:38:22.941Z,16.00
2018-06-12T09:40:53.297Z,15.80
2018-06-12T09:43:23.687Z,15.90
2018-06-12T09:45:54.051Z,15.80
2018-06-12T09:48:24.415Z,15.80
2018-06-12T09:50:54.737Z,15.90
2018-06-12T09:53:25.105Z,15.90
2018-06-12T09:56:02.413Z,15.90
2018-06-12T09:58:34.817Z,16.00
2018-06-12T10:01:05.864Z,16.10
2018-06-12T10:03:36.245Z,16.00
2018-06-12T10:06:06.625Z,15.90
2018-06-12T10:08:36.989Z,16.00
2018-06-12T10:11:07.367Z,15.90
2018-06-12T10:13:37.740Z,15.70
2018-06-12T10:16:08.056Z,15.80
2018-06-12T10:18:38.432Z,15.90
2018-06-12T10:21:08.793Z,15.90
2018-06-12T10:23:39.170Z,15.80
2018-06-12T10:26:29.945Z,15.90
2018-06-12T10:29:00.308Z,16.00
2018-06-12T10:31:30.679Z,16.30
2018-06-12T10:34:01.068Z,16.20
2018-06-12T10:36:32.435Z,16.20
2018-06-12T10:39:08.519Z,16.20
2018-06-12T10:41:39.883Z,16.10
2018-06-12T10:44:10.248Z,16.20
2018-06-12T10:46:40.635Z,16.10
2018-06-12T10:49:11.008Z,16.00
2018-06-12T10:51:41.384Z,16.20
2018-06-12T10:54:12.035Z,16.10
2018-06-12T10:56:44.193Z,16.00
2018-06-12T10:59:14.560Z,16.10
2018-06-12T11:01:44.956Z,16.10
2018-06-12T11:04:17.376Z,16.10
2018-06-12T11:06:47.687Z,16.10
2018-06-12T11:09:18.090Z,16.20
2018-06-12T11:11:50.518Z,16.20
2018-06-12T11:14:20.882Z,16.10
2018-06-12T11:16:53.312Z,16.10
2018-06-12T11:19:23.690Z,16.20
2018-06-12T11:21:56.047Z,16.20
2018-06-12T11:24:26.429Z,16.20
2018-06-12T11:26:56.801Z,16.20
2018-06-12T11:29:27.241Z,16.40
2018-06-12T11:31:57.561Z,16.40
2018-06-12T11:34:29.978Z,16.30
2018-06-12T11:37:00.739Z,16.50
2018-06-12T11:39:32.146Z,16.50
2018-06-12T11:42:02.457Z,16.50
2018-06-12T11:44:35.510Z,16.50
2018-06-12T11:47:08.976Z,16.60
2018-06-12T11:49:39.339Z,16.60
2018-06-12T11:52:09.720Z,16.70
2018-06-12T11:54:40.106Z,16.60
2018-06-12T11:57:10.463Z,16.70
2018-06-12T11:59:43.583Z,17.00
2018-06-12T12:02:13.973Z,17.10
2018-06-12T12:04:45.370Z,16.90
2018-06-12T12:07:16.505Z,16.50
2018-06-12T12:09:48.686Z,16.60
2018-06-12T12:12:19.827Z,16.70
2018-06-12T12:14:50.958Z,16.70
2018-06-12T12:17:22.117Z,16.80
2018-06-12T12:19:52.491Z,16.80
2018-06-12T12:22:22.855Z,16.80
2018-06-12T12:24:54.007Z,16.70
2018-06-12T12:27:24.377Z,16.70
2018-06-12T12:29:54.752Z,16.70
2018-06-12T12:32:25.144Z,16.80
2018-06-12T12:34:56.151Z,16.70
2018-06-12T12:37:27.539Z,16.60
2018-06-12T12:39:57.932Z,16.50
2018-06-12T12:42:28.242Z,16.60
2018-06-12T12:44:58.613Z,16.60
2018-06-12T12:47:28.998Z,16.60
2018-06-12T12:49:59.306Z,16.60
2018-06-12T12:52:30.436Z,16.50
2018-06-12T12:55:00.853Z,16.50
2018-06-12T12:57:31.212Z,16.60
2018-06-12T13:00:01.577Z,16.70
2018-06-12T13:02:52.359Z,16.80
2018-06-12T13:05:22.731Z,16.60
2018-06-12T13:07:54.114Z,16.90
2018-06-12T13:10:24.518Z,16.90
2018-06-12T13:12:54.886Z,16.90
2018-06-12T13:15:25.194Z,16.90
2018-06-12T13:17:56.347Z,17.20
2018-06-12T13:20:27.478Z,17.20
2018-06-12T13:22:57.840Z,17.20
2018-06-12T13:25:32.327Z,17.10
2018-06-12T13:28:03.644Z,17.00
2018-06-12T13:30:34.018Z,17.00
2018-06-12T13:33:04.411Z,17.10
2018-06-12T13:35:34.781Z,17.00
2018-06-12T13:38:05.155Z,17.10
2018-06-12T13:40:35.552Z,17.00
2018-06-12T13:43:07.643Z,17.00
2018-06-12T13:45:38.021Z,17.10
2018-06-12T13:48:08.423Z,17.30
2018-06-12T13:50:38.793Z,17.40
2018-06-12T13:53:09.166Z,17.60
2018-06-12T13:58:29.750Z,17.40
2018-06-12T14:01:01.805Z,17.50
2018-06-12T14:03:39.314Z,17.40
2018-06-12T14:06:09.894Z,17.60
2018-06-12T14:08:40.268Z,17.70
2018-06-12T14:11:10.629Z,17.70
2018-06-12T14:13:41.015Z,17.70
2018-06-12T14:16:12.102Z,17.90
2018-06-12T14:18:43.228Z,18.00
2018-06-12T14:21:13.620Z,18.00
2018-06-12T14:23:46.019Z,17.90
2018-06-12T14:26:16.391Z,18.00
2018-06-12T14:28:46.767Z,17.80
2018-06-12T14:31:17.136Z,18.00
2018-06-12T14:33:48.281Z,18.00
2018-06-12T14:36:19.604Z,18.10
2018-06-12T14:38:49.966Z,18.00
2018-06-12T14:41:20.348Z,18.10
2018-06-12T14:43:50.727Z,18.10
2018-06-12T14:46:21.058Z,18.10
2018-06-12T14:48:51.405Z,18.10
2018-06-12T14:51:21.796Z,18.10
2018-06-12T14:53:52.348Z,18.10
2018-06-12T14:56:24.768Z,18.20
2018-06-12T14:58:55.901Z,18.20
2018-06-12T15:01:26.465Z,18.20
2018-06-12T15:03:56.821Z,18.30
2018-06-12T15:06:27.210Z,18.40
2018-06-12T15:08:57.572Z,18.20
2018-06-12T15:11:34.565Z,18.20
2018-06-12T15:14:05.946Z,18.20
2018-06-12T15:16:36.316Z,18.10
2018-06-12T15:19:06.701Z,18.10
2018-06-12T15:21:39.876Z,18.20
2018-06-12T15:24:10.243Z,18.10
2018-06-12T15:26:41.354Z,18.10
2018-06-12T15:29:11.680Z,18.20
2018-06-12T15:31:42.051Z,18.20
2018-06-12T15:34:12.440Z,18.30
2018-06-12T15:36:42.893Z,18.40
2018-06-12T15:39:13.273Z,18.40
2018-06-12T15:41:43.673Z,18.60
2018-06-12T15:44:14.041Z,18.40
2018-06-12T15:46:44.417Z,18.40
2018-06-12T15:49:16.868Z,18.60
2018-06-12T15:51:48.016Z,18.90
2018-06-12T15:54:18.394Z,18.80
2018-06-12T15:56:48.732Z,18.90
2018-06-12T15:59:19.093Z,19.10
2018-06-12T16:01:49.401Z,19.00
2018-06-12T16:04:20.575Z,19.10
2018-06-12T16:06:50.891Z,19.10
2018-06-12T16:09:21.264Z,19.00
2018-06-12T16:11:57.779Z,19.30
2018-06-12T16:14:28.917Z,19.40
2018-06-12T16:17:01.271Z,19.30
2018-06-12T16:19:31.663Z,19.30
2018-06-12T16:22:02.040Z,19.00
2018-06-12T16:24:33.170Z,19.00
2018-06-12T16:27:03.559Z,18.90
2018-06-12T16:29:35.915Z,18.70
2018-06-12T16:32:06.289Z,18.70
2018-06-12T16:34:39.278Z,18.60
2018-06-12T16:37:14.912Z,18.50
2018-06-12T16:39:48.049Z,18.60
2018-06-12T16:42:21.895Z,18.70
2018-06-12T16:44:52.282Z,18.70
2018-06-12T16:47:24.359Z,18.50
2018-06-12T16:49:54.747Z,18.50
2018-06-12T16:52:27.672Z,18.60
2018-06-12T16:54:58.068Z,18.40
2018-06-12T16:57:28.489Z,18.40
2018-06-12T17:02:49.280Z,18.40
2018-06-12T17:05:20.684Z,18.30
2018-06-12T17:07:50.997Z,18.30
2018-06-12T17:10:21.422Z,18.30
2018-06-12T17:12:54.445Z,18.20
2018-06-12T17:15:24.752Z,18.20
2018-06-12T17:17:55.137Z,18.20
2018-06-12T17:20:25.508Z,18.20
2018-06-12T17:22:55.881Z,18.20
2018-06-12T17:25:28.828Z,18.20
2018-06-12T17:27:59.220Z,18.20
2018-06-12T17:30:32.203Z,18.30
2018-06-12T17:33:02.592Z,18.40
2018-06-12T17:35:34.949Z,18.40
2018-06-12T17:38:06.344Z,18.50
2018-06-12T17:40:39.337Z,18.50
2018-06-12T17:43:09.707Z,18.40
2018-06-12T17:45:40.077Z,18.40
2018-06-12T17:48:10.665Z,18.30
2018-06-12T17:50:41.041Z,18.20
2018-06-12T17:53:11.454Z,18.20
2018-06-12T17:55:44.332Z,18.30
2018-06-12T17:58:16.939Z,18.20
2018-06-12T18:00:47.302Z,18.10
2018-06-12T18:03:21.409Z,18.10
2018-06-12T18:05:53.831Z,18.20
2018-06-12T18:08:25.225Z,18.00
2018-06-12T18:10:58.109Z,18.10
2018-06-12T18:13:28.482Z,18.00
2018-06-12T18:16:00.897Z,18.10
2018-06-12T18:18:32.105Z,18.10
2018-06-12T18:21:04.528Z,18.10
2018-06-12T18:23:34.933Z,18.10
2018-06-12T18:26:06.320Z,18.10
2018-06-12T18:28:36.700Z,18.00
2018-06-12T18:31:07.062Z,17.90
2018-06-12T18:33:39.900Z,17.80
2018-06-12T18:36:16.042Z,17.90
2018-06-12T18:38:49.255Z,17.80
2018-06-12T18:41:19.632Z,17.80
2018-06-12T18:43:50.076Z,17.80
2018-06-12T18:46:20.408Z,17.70
2018-06-12T18:48:50.967Z,17.70
2018-06-12T18:51:21.295Z,17.70
2018-06-12T18:53:55.628Z,17.70
2018-06-12T18:56:26.013Z,17.60
2018-06-12T18:58:58.987Z,17.60
2018-06-12T19:01:29.555Z,17.50
2018-06-12T19:03:59.919Z,17.50
2018-06-12T19:06:31.125Z,17.40
2018-06-12T19:09:01.607Z,17.40
2018-06-12T19:11:31.997Z,17.40
2018-06-12T19:14:02.386Z,17.40
2018-06-12T19:16:32.762Z,17.50
2018-06-12T19:19:03.841Z,17.40
2018-06-12T19:21:34.240Z,17.40
2018-06-12T19:24:04.626Z,17.30
2018-06-12T19:26:35.736Z,17.30
2018-06-12T19:29:06.132Z,17.30
2018-06-12T19:31:36.737Z,17.30
2018-06-12T19:34:09.595Z,17.30
2018-06-12T19:36:43.029Z,17.30
2018-06-12T19:39:16.070Z,17.30
2018-06-12T19:41:46.461Z,17.20
2018-06-12T19:44:20.586Z,17.30
2018-06-12T19:46:53.557Z,17.30
2018-06-12T19:49:23.943Z,17.30
2018-06-12T19:51:56.770Z,17.30
2018-06-12T19:54:31.214Z,17.30
2018-06-12T19:57:01.576Z,17.20
2018-06-12T20:02:20.189Z,17.20
2018-06-12T20:04:50.544Z,17.10
2018-06-12T20:07:23.975Z,17.20
2018-06-12T20:09:55.395Z,17.20
2018-06-12T20:12:25.777Z,17.20
2018-06-12T20:14:56.144Z,17.20
2018-06-12T20:17:27.241Z,17.10
2018-06-12T20:19:57.618Z,17.20
2018-06-12T20:22:28.015Z,17.30
2018-06-12T20:24:59.138Z,17.10
2018-06-12T20:27:31.939Z,17.10
2018-06-12T20:30:02.252Z,17.10
2018-06-12T20:32:32.644Z,17.10
2018-06-12T20:35:23.153Z,17.10
2018-06-12T20:37:54.561Z,17.00
2018-06-12T20:40:27.543Z,17.00
2018-06-12T20:42:58.678Z,17.00
2018-06-12T20:45:29.838Z,16.90
2018-06-12T20:48:00.466Z,16.90
2018-06-12T20:50:31.421Z,16.80
2018-06-12T20:53:01.817Z,16.80
2018-06-12T20:55:32.175Z,16.70
2018-06-12T20:58:02.546Z,16.80
2018-06-12T21:00:32.930Z,16.80
2018-06-12T21:03:03.297Z,16.90
2018-06-12T21:05:33.666Z,16.90
2018-06-12T21:08:04.066Z,16.80
2018-06-12T21:10:35.203Z,16.70
2018-06-12T21:13:05.574Z,16.70
2018-06-12T21:15:36.667Z,16.60
2018-06-12T21:18:07.041Z,16.60
2018-06-12T21:20:38.133Z,16.50
2018-06-12T21:23:08.536Z,16.30
2018-06-12T21:25:40.896Z,16.40
2018-06-12T21:28:15.563Z,16.30
2018-06-12T21:30:45.935Z,16.30
2018-06-12T21:33:27.255Z,16.30
2018-06-12T21:36:04.145Z,16.30
2018-06-12T21:38:34.539Z,16.50
2018-06-12T21:41:04.978Z,16.20
2018-06-12T21:43:41.087Z,16.10
2018-06-12T21:46:12.216Z,16.10
2018-06-12T21:48:42.579Z,16.10
2018-06-12T21:51:12.966Z,16.00
2018-06-12T21:53:43.329Z,16.00
2018-06-12T21:56:13.689Z,15.90
2018-06-12T21:59:03.447Z,16.00
2018-06-12T22:01:35.863Z,15.90
2018-06-12T22:04:06.909Z,15.90
2018-06-12T22:06:44.992Z,16.00
2018-06-12T22:09:15.349Z,16.00
2018-06-12T22:11:46.478Z,15.80
2018-06-12T22:14:16.873Z,15.90
2018-06-12T22:16:47.234Z,16.00
2018-06-12T22:19:18.631Z,16.00
2018-06-12T22:21:49.013Z,16.00
2018-06-12T22:24:19.380Z,16.10
2018-06-12T22:26:49.744Z,16.10
2018-06-12T22:29:38.481Z,16.10
2018-06-12T22:32:09.882Z,16.10
2018-06-12T22:34:40.228Z,15.90
2018-06-12T22:37:10.620Z,15.80
2018-06-12T22:39:40.934Z,15.70
2018-06-12T22:42:11.307Z,15.70
2018-06-12T22:44:42.473Z,15.70
2018-06-12T22:47:12.783Z,15.70
2018-06-12T22:49:43.156Z,15.80
2018-06-12T22:52:14.194Z,15.90
2018-06-12T22:54:44.559Z,15.70
2018-06-12T22:57:15.688Z,15.70
2018-06-12T22:59:46.077Z,15.60
2018-06-12T23:02:20.543Z,15.70
2018-06-12T23:04:51.618Z,15.50
2018-06-12T23:07:22.004Z,15.50
2018-06-12T23:09:52.365Z,15.50
2018-06-12T23:12:22.744Z,15.50
2018-06-12T23:14:55.163Z,15.60
2018-06-12T23:17:25.524Z,15.40
2018-06-12T23:19:55.897Z,15.40
2018-06-12T23:22:26.238Z,15.50
2018-06-12T23:24:56.605Z,15.40
2018-06-12T23:27:26.972Z,15.30
2018-06-12T23:29:58.128Z,15.40
2018-06-12T23:32:29.269Z,15.20
2018-06-12T23:35:00.401Z,15.10
2018-06-12T23:37:31.565Z,15.00
2018-06-12T23:40:02.121Z,15.00
2018-06-12T23:42:34.549Z,14.90
2018-06-12T23:45:04.953Z,15.10
2018-06-12T23:47:35.317Z,15.10
2018-06-12T23:50:06.440Z,15.10
2018-06-12T23:52:36.840Z,15.10
2018-06-12T23:55:07.204Z,15.00
2018-06-12T23:57:38.340Z,14.80
